Time;durP1;ratioP1;P1;durP2;ratioP2;P2;SDS_P1;SDS_P2;PMS_P1;PMS_P2;Temp;Humidity;BMP_temperature;BMP_pressure;BME280_temperature;BME280_humidity;BME280_pressure;Samples;Min_cycle;Max_cycle;Signal;HPM_P1;HPM_P2
2023/06/24 00:00:00;;;;;;;4.07;3.03;;;19.60;99.90;;;;;;4843610;29;20053;-82
2023/06/24 00:02:27;;;;;;;4.32;3.47;;;19.50;99.90;;;;;;4853757;29;20067;-80
2023/06/24 00:04:54;;;;;;;7.60;3.65;;;19.50;99.90;;;;;;4853004;29;20534;-81
2023/06/24 00:07:22;;;;;;;4.25;3.53;;;19.50;99.90;;;;;;4856615;29;20054;-78
2023/06/24 00:09:49;;;;;;;4.70;3.50;;;19.40;99.90;;;;;;4841711;29;20054;-79
2023/06/24 00:12:18;;;;;;;5.85;3.85;;;19.40;99.90;;;;;;4837193;29;20053;-83
2023/06/24 00:14:47;;;;;;;5.22;3.70;;;19.40;99.90;;;;;;4856240;29;20365;-82
2023/06/24 00:17:16;;;;;;;4.60;3.65;;;19.40;99.90;;;;;;4838960;29;20050;-81
2023/06/24 00:19:44;;;;;;;4.43;3.33;;;19.40;99.90;;;;;;4836158;29;20049;-82
2023/06/24 00:22:10;;;;;;;4.85;4.03;;;19.30;99.90;;;;;;4853144;29;20129;-81
2023/06/24 00:24:42;;;;;;;6.53;4.00;;;19.30;99.90;;;;;;4836855;29;20046;-81
2023/06/24 00:27:10;;;;;;;6.10;3.50;;;19.30;99.90;;;;;;4853405;29;20058;-80
2023/06/24 00:29:36;;;;;;;7.07;3.70;;;19.30;99.90;;;;;;4851785;29;20065;-81
2023/06/24 00:32:04;;;;;;;6.35;3.35;;;19.30;99.90;;;;;;4852503;29;20551;-80
2023/06/24 00:34:30;;;;;;;3.70;3.30;;;19.20;99.90;;;;;;4852504;29;20133;-79
2023/06/24 00:36:57;;;;;;;5.05;3.70;;;19.20;99.90;;;;;;4853522;29;20069;-81
2023/06/24 00:39:24;;;;;;;5.40;3.90;;;19.20;99.90;;;;;;4835636;29;20053;-79
2023/06/24 00:41:50;;;;;;;6.75;4.00;;;19.10;99.90;;;;;;4827494;29;20054;-81
2023/06/24 00:44:17;;;;;;;5.13;4.20;;;19.10;99.90;;;;;;4825490;29;20065;-82
2023/06/24 00:46:44;;;;;;;4.38;3.50;;;19.10;99.90;;;;;;4835947;29;20050;-79
2023/06/24 00:49:14;;;;;;;6.43;3.38;;;19.10;99.90;;;;;;4851901;29;20080;-79
2023/06/24 00:51:50;;;;;;;4.75;3.53;;;19.00;99.90;;;;;;4834729;29;20054;-79
2023/06/24 00:54:17;;;;;;;9.60;3.70;;;19.00;99.90;;;;;;4849384;29;20050;-80
2023/06/24 00:56:45;;;;;;;5.65;3.90;;;19.00;99.90;;;;;;4853081;29;20054;-82
2023/06/24 00:59:17;;;;;;;4.20;3.40;;;19.00;99.90;;;;;;4836758;29;20057;-82
2023/06/24 01:01:46;;;;;;;4.07;3.65;;;19.00;99.90;;;;;;4839753;29;20053;-83
2023/06/24 01:04:13;;;;;;;7.70;3.88;;;18.90;99.90;;;;;;4854341;29;20564;-80
2023/06/24 01:06:43;;;;;;;5.68;3.42;;;18.90;99.90;;;;;;4839193;29;20042;-82
2023/06/24 01:09:10;;;;;;;;;;;18.90;99.90;;;;;;4855223;29;20499;-82
2023/06/24 01:11:39;;;;;;;5.40;3.33;;;18.90;99.90;;;;;;4854904;29;19925;-83
2023/06/24 01:14:06;;;;;;;5.30;3.65;;;18.80;99.90;;;;;;4852255;29;20085;-81
2023/06/24 01:16:45;;;;;;;7.68;3.97;;;18.80;99.90;;;;;;4852750;29;20054;-81
2023/06/24 01:19:47;;;;;;;4.28;3.85;;;18.80;99.90;;;;;;4849979;29;20054;-81
2023/06/24 01:22:32;;;;;;;5.68;3.40;;;18.70;99.90;;;;;;4852194;29;20050;-81
2023/06/24 01:25:39;;;;;;;4.03;3.17;;;18.80;99.90;;;;;;4835343;29;20480;-80
2023/06/24 01:28:59;;;;;;;4.07;3.67;;;18.70;99.90;;;;;;4849364;29;20075;-81
2023/06/24 01:31:39;;;;;;;5.70;3.80;;;18.70;99.90;;;;;;4827469;29;20548;-81
2023/06/24 01:34:13;;;;;;;6.60;3.47;;;18.70;99.90;;;;;;4850463;29;20086;-81
2023/06/24 01:36:47;;;;;;;5.35;3.83;;;18.60;99.90;;;;;;4833560;29;20050;-81
2023/06/24 01:39:16;;;;;;;7.20;3.90;;;18.60;99.90;;;;;;4851404;29;20057;-81
2023/06/24 01:41:53;;;;;;;4.88;3.33;;;18.60;99.90;;;;;;4849560;29;20065;-81
2023/06/24 01:44:21;;;;;;;5.93;3.55;;;18.60;99.90;;;;;;4849374;29;20046;-81
2023/06/24 01:46:55;;;;;;;7.63;4.07;;;18.50;99.90;;;;;;4834454;29;20058;-81
2023/06/24 01:49:23;;;;;;;9.48;4.05;;;18.50;99.90;;;;;;4850134;29;20060;-80
2023/06/24 01:51:50;;;;;;;7.80;3.58;;;18.50;99.90;;;;;;4850610;29;20136;-80
2023/06/24 01:54:20;;;;;;;9.43;4.07;;;18.50;99.90;;;;;;4856038;29;20473;-79
2023/06/24 01:56:49;;;;;;;4.70;3.72;;;18.50;99.90;;;;;;4836008;29;20050;-82
2023/06/24 01:59:18;;;;;;;5.13;4.13;;;18.50;99.90;;;;;;4850951;29;20501;-81
2023/06/24 02:01:45;;;;;;;6.30;4.30;;;18.40;99.90;;;;;;4853936;29;20481;-82
2023/06/24 02:04:14;;;;;;;4.22;3.53;;;18.40;99.90;;;;;;4851792;29;20092;-81
2023/06/24 02:06:42;;;;;;;15.15;5.57;;;18.40;99.90;;;;;;4831574;29;20457;-80
2023/06/24 02:09:10;;;;;;;5.15;3.85;;;18.40;99.90;;;;;;4851781;29;20136;-81
2023/06/24 02:11:39;;;;;;;5.68;3.80;;;18.30;99.90;;;;;;4851693;29;20045;-82
2023/06/24 02:14:08;;;;;;;7.93;3.78;;;18.30;99.90;;;;;;4847576;29;20058;-81
2023/06/24 02:16:40;;;;;;;5.70;3.50;;;18.30;99.90;;;;;;4849734;29;20110;-81
2023/06/24 02:19:09;;;;;;;5.35;3.85;;;18.30;99.90;;;;;;4849383;29;20087;-81
2023/06/24 02:21:40;;;;;;;4.75;3.75;;;18.30;99.90;;;;;;4849192;29;20049;-80
2023/06/24 02:24:07;;;;;;;4.47;3.90;;;18.30;99.90;;;;;;4830266;29;20057;-82
2023/06/24 02:26:37;;;;;;;7.65;4.55;;;18.20;99.90;;;;;;4849105;29;20492;-80
2023/06/24 02:29:04;;;;;;;6.20;3.75;;;18.20;99.90;;;;;;4846303;29;20053;-79
2023/06/24 02:31:30;;;;;;;6.15;3.63;;;18.20;99.90;;;;;;4845954;29;20050;-79
2023/06/24 02:33:57;;;;;;;6.22;3.70;;;18.10;99.90;;;;;;4847964;29;20054;-82
2023/06/24 02:36:24;;;;;;;9.98;4.53;;;18.10;99.90;;;;;;4849037;29;20050;-80
2023/06/24 02:38:51;;;;;;;5.35;4.18;;;18.10;99.90;;;;;;4848078;29;20121;-79
2023/06/24 02:41:17;;;;;;;5.35;3.75;;;18.10;99.90;;;;;;4849043;29;20137;-81
2023/06/24 02:43:44;;;;;;;4.63;3.65;;;18.00;99.90;;;;;;4848554;29;20132;-81
2023/06/24 02:46:11;;;;;;;4.90;4.00;;;18.00;99.90;;;;;;4853461;29;20046;-79
2023/06/24 02:48:42;;;;;;;7.53;4.20;;;18.00;99.90;;;;;;4854236;29;20049;-82
2023/06/24 02:51:10;;;;;;;5.80;4.22;;;18.00;99.90;;;;;;4852852;29;20046;-79
2023/06/24 02:53:38;;;;;;;5.68;3.67;;;18.00;99.90;;;;;;4836886;29;20053;-82
2023/06/24 02:56:07;;;;;;;5.72;3.83;;;18.00;99.90;;;;;;4852122;29;20049;-82
2023/06/24 02:58:38;;;;;;;4.75;4.13;;;18.00;99.90;;;;;;4850111;29;20053;-81
2023/06/24 03:01:08;;;;;;;;;;;17.90;99.90;;;;;;4834681;29;20057;-80
2023/06/24 03:03:35;;;;;;;4.72;3.92;;;17.90;99.90;;;;;;4849747;29;19976;-81
2023/06/24 03:06:03;;;;;;;6.22;3.67;;;17.90;99.90;;;;;;4850007;29;20102;-82
2023/06/24 03:08:30;;;;;;;5.55;3.95;;;17.90;99.90;;;;;;4849965;29;20085;-79
2023/06/24 03:10:57;;;;;;;4.20;3.80;;;17.80;99.90;;;;;;4848331;29;20058;-80
2023/06/24 03:13:24;;;;;;;6.97;3.78;;;17.80;99.90;;;;;;4832197;29;20057;-81
2023/06/24 03:15:51;;;;;;;4.68;4.20;;;17.80;99.90;;;;;;4848197;29;20129;-81
2023/06/24 03:18:18;;;;;;;6.38;4.35;;;17.80;99.90;;;;;;4848891;29;20046;-80
2023/06/24 03:20:45;;;;;;;8.18;3.78;;;17.80;99.90;;;;;;4848674;29;20110;-78
2023/06/24 03:23:12;;;;;;;7.07;3.95;;;17.80;99.90;;;;;;4848461;29;20046;-81
2023/06/24 03:25:39;;;;;;;7.90;3.75;;;17.70;99.90;;;;;;4847951;29;20102;-79
2023/06/24 03:28:07;;;;;;;6.30;4.10;;;17.70;99.90;;;;;;4848705;29;20469;-80
2023/06/24 03:30:34;;;;;;;8.63;4.38;;;17.70;99.90;;;;;;4849345;29;20056;-81
2023/06/24 03:33:01;;;;;;;4.45;3.80;;;17.70;99.90;;;;;;4848678;29;20077;-79
2023/06/24 03:35:29;;;;;;;5.53;4.13;;;17.70;99.90;;;;;;4848062;29;20057;-80
2023/06/24 03:37:56;;;;;;;4.50;4.10;;;17.70;99.90;;;;;;4850616;29;20064;-82
2023/06/24 03:40:23;;;;;;;4.47;4.07;;;17.60;99.90;;;;;;4853565;29;20568;-81
2023/06/24 03:42:49;;;;;;;5.93;4.03;;;17.60;99.90;;;;;;4853974;29;20121;-81
2023/06/24 03:45:16;;;;;;;5.38;4.22;;;17.60;99.90;;;;;;4852352;29;20077;-81
2023/06/24 03:47:43;;;;;;;7.88;5.45;;;17.60;99.90;;;;;;4835421;29;20078;-79
2023/06/24 03:50:10;;;;;;;8.30;4.75;;;17.60;99.90;;;;;;4850613;29;20050;-79
2023/06/24 03:52:36;;;;;;;4.78;4.07;;;17.60;99.90;;;;;;4851171;29;20050;-82
2023/06/24 03:55:04;;;;;;;5.80;3.80;;;17.60;99.90;;;;;;4849998;29;20089;-81
2023/06/24 03:57:31;;;;;;;8.55;4.15;;;17.60;99.90;;;;;;4849447;29;20050;-79
2023/06/24 03:59:58;;;;;;;9.63;4.10;;;17.60;99.90;;;;;;4848368;29;20090;-78
2023/06/24 04:02:26;;;;;;;6.72;4.50;;;17.50;99.90;;;;;;4848513;29;20053;-80
2023/06/24 04:04:55;;;;;;;8.13;4.45;;;17.50;99.90;;;;;;4848904;29;20054;-79
2023/06/24 04:07:27;;;;;;;6.18;4.20;;;17.50;99.90;;;;;;4830949;29;20073;-80
2023/06/24 04:09:55;;;;;;;7.05;3.90;;;17.50;99.90;;;;;;4847590;29;20492;-81
2023/06/24 04:12:23;;;;;;;5.85;3.70;;;17.50;99.90;;;;;;4848889;29;20042;-81
2023/06/24 04:14:50;;;;;;;4.68;3.80;;;17.50;99.90;;;;;;4835301;29;20053;-80
2023/06/24 04:17:16;;;;;;;5.60;4.10;;;17.60;99.90;;;;;;4850050;29;20049;-79
2023/06/24 04:19:44;;;;;;;9.10;4.30;;;17.60;99.90;;;;;;4831429;29;20135;-82
2023/06/24 04:22:11;;;;;;;7.88;3.95;;;17.60;99.90;;;;;;4851643;29;20076;-79
2023/06/24 04:24:38;;;;;;;4.10;3.70;;;17.60;99.90;;;;;;4832101;29;20077;-82
2023/06/24 04:27:08;;;;;;;5.95;4.00;;;17.60;99.90;;;;;;4851043;29;20049;-79
2023/06/24 04:29:34;;;;;;;6.85;4.03;;;17.60;99.90;;;;;;4834780;29;20054;-81
2023/06/24 04:32:01;;;;;;;4.15;3.58;;;17.60;99.90;;;;;;4839048;29;20075;-79
2023/06/24 04:34:28;;;;;;;8.27;3.78;;;17.70;99.90;;;;;;4856328;29;20087;-82
2023/06/24 04:36:55;;;;;;;3.88;3.25;;;17.60;99.90;;;;;;4855742;29;20050;-81
2023/06/24 04:39:22;;;;;;;8.52;4.28;;;17.60;99.90;;;;;;4855694;29;20054;-82
2023/06/24 04:41:48;;;;;;;6.30;4.28;;;17.70;99.90;;;;;;4854397;29;20053;-81
2023/06/24 04:44:15;;;;;;;6.70;3.78;;;17.70;99.90;;;;;;4851845;29;20371;-81
2023/06/24 04:46:42;;;;;;;5.32;3.90;;;17.70;99.90;;;;;;4854525;29;20082;-80
2023/06/24 04:49:09;;;;;;;6.57;3.72;;;17.80;99.90;;;;;;4853411;29;20515;-79
2023/06/24 04:51:36;;;;;;;7.38;4.38;;;17.90;99.90;;;;;;4834396;29;20049;-82
2023/06/24 04:54:04;;;;;;;4.60;3.60;;;17.90;99.90;;;;;;4852827;29;20091;-80
2023/06/24 04:56:30;;;;;;;4.65;4.13;;;18.00;99.90;;;;;;4852788;29;20034;-82
2023/06/24 04:58:57;;;;;;;5.28;3.67;;;18.10;99.90;;;;;;4852586;29;20050;-81
2023/06/24 05:01:24;;;;;;;6.55;4.07;;;18.30;99.90;;;;;;4851947;29;20538;-81
2023/06/24 05:03:50;;;;;;;3.40;3.10;;;18.40;99.90;;;;;;4849787;29;20102;-79
2023/06/24 05:06:17;;;;;;;6.45;3.50;;;18.50;99.90;;;;;;4853636;29;20046;-82
2023/06/24 05:08:44;;;;;;;4.63;3.25;;;18.70;99.90;;;;;;4853296;29;20049;-83
2023/06/24 05:11:11;;;;;;;4.75;3.70;;;18.80;99.90;;;;;;4835024;29;20050;-83
2023/06/24 05:13:38;;;;;;;6.88;3.85;;;19.00;99.90;;;;;;4829824;29;20066;-83
2023/06/24 05:16:04;;;;;;;5.50;3.58;;;19.00;99.90;;;;;;4852306;29;20053;-82
2023/06/24 05:18:31;;;;;;;4.97;3.47;;;19.10;99.90;;;;;;4853382;29;20053;-80
2023/06/24 05:20:58;;;;;;;5.38;3.42;;;19.30;99.90;;;;;;4853786;29;20104;-83
2023/06/24 05:23:25;;;;;;;5.07;3.92;;;19.40;99.90;;;;;;4852331;29;20424;-83
2023/06/24 05:25:51;;;;;;;6.45;3.70;;;19.50;99.90;;;;;;4857195;29;20566;-81
2023/06/24 05:28:18;;;;;;;4.82;3.22;;;19.60;99.90;;;;;;4858399;29;20042;-82
2023/06/24 05:30:46;;;;;;;5.85;3.38;;;19.70;99.90;;;;;;4842022;29;20042;-82
2023/06/24 05:33:12;;;;;;;4.38;3.67;;;19.80;99.90;;;;;;4857700;29;20073;-82
2023/06/24 05:35:41;;;;;;;6.45;3.95;;;19.90;99.90;;;;;;4858663;29;20053;-79
2023/06/24 05:38:08;;;;;;;4.60;3.50;;;20.00;99.90;;;;;;4857576;29;20058;-82
2023/06/24 05:40:35;;;;;;;9.00;5.05;;;20.10;99.90;;;;;;4852930;29;20054;-83
2023/06/24 05:43:02;;;;;;;6.13;4.57;;;20.20;99.90;;;;;;4856760;29;20054;-82
2023/06/24 05:45:29;;;;;;;5.18;4.47;;;20.20;99.90;;;;;;4841399;29;20057;-82
2023/06/24 05:47:56;;;;;;;5.78;4.13;;;20.30;99.90;;;;;;4857289;29;20057;-83
2023/06/24 05:50:23;;;;;;;7.20;4.68;;;20.30;99.90;;;;;;4856653;29;20049;-85
2023/06/24 05:52:49;;;;;;;5.50;4.90;;;20.30;99.90;;;;;;4857169;29;20114;-81
2023/06/24 05:55:16;;;;;;;6.57;4.22;;;20.30;99.90;;;;;;4830901;29;20142;-79
2023/06/24 05:57:43;;;;;;;6.60;4.22;;;20.30;99.90;;;;;;4856778;29;20425;-83
2023/06/24 06:00:10;;;;;;;7.65;4.72;;;20.20;99.90;;;;;;4856703;29;20065;-83
2023/06/24 06:02:37;;;;;;;7.38;4.65;;;20.20;99.90;;;;;;4855210;29;20534;-80
2023/06/24 06:05:04;;;;;;;6.80;4.70;;;20.20;99.90;;;;;;4852806;29;20057;-83
2023/06/24 06:07:30;;;;;;;5.43;4.18;;;20.20;99.90;;;;;;4837703;29;20531;-82
2023/06/24 06:09:57;;;;;;;6.78;4.35;;;20.20;99.90;;;;;;4853628;29;20075;-80
2023/06/24 06:12:24;;;;;;;4.28;3.60;;;20.20;99.90;;;;;;4853353;29;20042;-80
2023/06/24 06:14:51;;;;;;;5.80;3.88;;;20.20;99.90;;;;;;4852669;29;20045;-81
2023/06/24 06:17:17;;;;;;;4.95;4.03;;;20.20;99.90;;;;;;4855176;29;20058;-80
2023/06/24 06:19:46;;;;;;;5.07;4.25;;;20.20;99.90;;;;;;4856270;29;20053;-82
2023/06/24 06:22:15;;;;;;;5.22;4.15;;;20.20;99.90;;;;;;4855318;29;20079;-81
2023/06/24 06:24:42;;;;;;;7.75;4.15;;;20.20;99.90;;;;;;4855138;29;20061;-83
2023/06/24 06:27:13;;;;;;;6.95;4.30;;;20.20;99.90;;;;;;4855470;29;20094;-82
2023/06/24 06:29:40;;;;;;;4.68;4.18;;;20.30;99.90;;;;;;4854672;29;20070;-82
2023/06/24 06:32:07;;;;;;;7.57;5.25;;;20.30;99.90;;;;;;4854080;29;20054;-82
2023/06/24 06:34:34;;;;;;;7.05;4.57;;;20.30;99.90;;;;;;4851833;29;20106;-82
2023/06/24 06:37:01;;;;;;;6.60;4.10;;;20.30;99.90;;;;;;4852607;29;20061;-82
2023/06/24 06:39:28;;;;;;;8.07;4.40;;;20.30;99.90;;;;;;4851478;29;20054;-82
2023/06/24 06:41:54;;;;;;;5.28;4.18;;;20.30;99.90;;;;;;4827367;29;20101;-82
2023/06/24 06:44:21;;;;;;;6.30;5.30;;;20.30;99.90;;;;;;4852978;29;20088;-82
2023/06/24 06:46:48;;;;;;;8.27;5.40;;;20.40;99.90;;;;;;4851743;29;20050;-81
2023/06/24 06:49:14;;;;;;;8.40;5.32;;;20.40;99.90;;;;;;4851968;29;20081;-82
2023/06/24 06:51:41;;;;;;;11.80;5.90;;;20.40;99.90;;;;;;4850480;29;20050;-81
2023/06/24 06:54:08;;;;;;;12.20;5.80;;;20.30;99.90;;;;;;4851908;29;20053;-82
2023/06/24 06:56:35;;;;;;;6.80;6.10;;;20.30;99.90;;;;;;4835714;29;20042;-79
2023/06/24 06:59:01;;;;;;;8.68;6.30;;;20.30;99.90;;;;;;4851612;29;20090;-83
2023/06/24 07:01:28;;;;;;;8.13;5.85;;;20.30;99.90;;;;;;4853125;29;20052;-83
2023/06/24 07:03:55;;;;;;;7.32;5.63;;;20.30;99.90;;;;;;4852366;29;20049;-79
2023/06/24 07:06:22;;;;;;;10.80;6.50;;;20.40;99.90;;;;;;4853801;29;20046;-82
2023/06/24 07:08:48;;;;;;;11.65;6.25;;;20.40;99.90;;;;;;4853398;29;20106;-80
2023/06/24 07:11:15;;;;;;;7.32;5.85;;;20.40;99.90;;;;;;4856405;29;20142;-82
2023/06/24 07:13:42;;;;;;;6.78;5.82;;;20.40;99.90;;;;;;4833571;29;20058;-83
2023/06/24 07:16:09;;;;;;;11.43;6.15;;;20.40;99.90;;;;;;4854761;29;20508;-80
2023/06/24 07:18:35;;;;;;;8.55;5.90;;;20.40;99.90;;;;;;4854242;29;20053;-81
2023/06/24 07:21:02;;;;;;;8.88;5.72;;;20.40;99.90;;;;;;4854053;29;20062;-81
2023/06/24 07:23:29;;;;;;;7.15;6.30;;;20.50;99.90;;;;;;4837221;29;20069;-82
2023/06/24 07:25:55;;;;;;;10.50;6.97;;;20.50;99.90;;;;;;4853103;29;20576;-81
2023/06/24 07:28:22;;;;;;;10.82;6.22;;;20.50;99.90;;;;;;4852509;29;20054;-82
2023/06/24 07:30:49;;;;;;;10.93;6.28;;;20.50;99.90;;;;;;4852312;29;20126;-81
2023/06/24 07:33:15;;;;;;;10.27;6.72;;;20.50;99.90;;;;;;4851929;29;20459;-79
2023/06/24 07:35:42;;;;;;;10.63;6.97;;;20.60;99.90;;;;;;4848883;29;20049;-80
2023/06/24 07:38:09;;;;;;;12.38;6.55;;;20.60;99.90;;;;;;4851649;29;20057;-81
2023/06/24 07:40:36;;;;;;;9.73;6.85;;;20.60;99.90;;;;;;4853163;29;20054;-81
2023/06/24 07:43:03;;;;;;;8.25;6.45;;;20.60;99.90;;;;;;4851223;29;20069;-80
2023/06/24 07:45:29;;;;;;;13.45;6.82;;;20.60;99.90;;;;;;4851395;29;20078;-83
2023/06/24 07:47:56;;;;;;;7.70;6.28;;;20.70;99.90;;;;;;4852376;29;20054;-82
2023/06/24 07:50:23;;;;;;;9.10;5.93;;;20.70;99.90;;;;;;4852107;29;20070;-82
2023/06/24 07:52:50;;;;;;;7.55;5.95;;;20.70;99.90;;;;;;4834026;29;20050;-81
2023/06/24 07:55:17;;;;;;;7.88;6.43;;;20.70;99.90;;;;;;4857228;29;20772;-82
2023/06/24 07:57:47;;;;;;;7.95;6.35;;;20.70;99.90;;;;;;4856205;29;20113;-82
2023/06/24 08:00:15;;;;;;;10.95;7.13;;;20.80;99.90;;;;;;4855493;29;20057;-82
2023/06/24 08:02:42;;;;;;;8.38;6.65;;;20.80;99.90;;;;;;4859025;29;20459;-84
2023/06/24 08:05:09;;;;;;;7.95;6.22;;;20.80;99.90;;;;;;4857476;29;20042;-81
2023/06/24 08:07:37;;;;;;;10.63;6.57;;;20.90;99.90;;;;;;4857364;29;20049;-82
2023/06/24 08:10:04;;;;;;;7.75;6.20;;;20.90;99.90;;;;;;4855062;29;20060;-80
2023/06/24 08:12:31;;;;;;;9.63;6.78;;;20.90;99.90;;;;;;4856223;29;20054;-82
2023/06/24 08:14:58;;;;;;;7.40;6.00;;;20.90;99.90;;;;;;4856015;29;20077;-83
2023/06/24 08:17:25;;;;;;;8.35;5.85;;;21.00;99.90;;;;;;4855566;29;20054;-79
2023/06/24 08:19:51;;;;;;;6.40;5.72;;;21.00;99.90;;;;;;4855626;29;20405;-79
2023/06/24 08:22:18;;;;;;;8.85;5.72;;;21.10;99.90;;;;;;4854765;29;20053;-83
2023/06/24 08:24:45;;;;;;;10.65;6.80;;;21.10;99.90;;;;;;4860004;29;20083;-82
2023/06/24 08:27:11;;;;;;;10.60;5.20;;;21.20;99.90;;;;;;4837953;29;20046;-82
2023/06/24 08:29:38;;;;;;;9.70;5.60;;;21.20;99.90;;;;;;4863106;29;20043;-81
2023/06/24 08:32:06;;;;;;;6.82;5.38;;;21.20;99.90;;;;;;4864379;29;20054;-84
2023/06/24 08:34:33;;;;;;;6.65;5.55;;;21.20;99.90;;;;;;4864225;29;20508;-82
2023/06/24 08:37:00;;;;;;;11.18;6.55;;;21.30;99.90;;;;;;4862130;29;20050;-83
2023/06/24 08:39:27;;;;;;;7.57;5.93;;;21.40;99.90;;;;;;4863926;29;20050;-80
2023/06/24 08:41:54;;;;;;;11.20;6.07;;;21.40;99.90;;;;;;4865455;29;20086;-83
2023/06/24 08:44:21;;;;;;;8.55;5.15;;;21.50;99.90;;;;;;4864602;29;20061;-83
2023/06/24 08:46:48;;;;;;;7.13;5.85;;;21.50;99.90;;;;;;4848770;29;20037;-81
2023/06/24 08:49:15;;;;;;;9.07;5.47;;;21.50;99.90;;;;;;4864046;29;20046;-81
2023/06/24 08:51:44;;;;;;;7.30;5.07;;;21.50;99.90;;;;;;4864291;29;20105;-83
2023/06/24 08:54:11;;;;;;;5.45;4.38;;;21.60;99.90;;;;;;4861257;29;20049;-82
2023/06/24 08:56:38;;;;;;;5.15;4.65;;;21.70;99.90;;;;;;4860489;29;20054;-82
2023/06/24 08:59:06;;;;;;;5.45;4.70;;;21.70;99.90;;;;;;4859253;29;20056;-81
2023/06/24 09:01:33;;;;;;;6.30;4.80;;;21.80;99.90;;;;;;4857731;29;20079;-82
2023/06/24 09:03:59;;;;;;;6.70;5.30;;;21.90;99.90;;;;;;4834188;29;20078;-82
2023/06/24 09:06:26;;;;;;;6.85;5.30;;;21.90;99.90;;;;;;4841562;29;20049;-82
2023/06/24 09:08:54;;;;;;;6.43;4.75;;;22.00;99.90;;;;;;4858737;29;20058;-82
2023/06/24 09:11:28;;;;;;;8.35;5.78;;;22.00;99.90;;;;;;4859335;29;20066;-80
2023/06/24 09:13:56;;;;;;;6.50;4.93;;;22.00;99.90;;;;;;4840400;29;20050;-82
2023/06/24 09:16:23;;;;;;;8.00;5.70;;;22.10;99.90;;;;;;4857264;29;20046;-81
2023/06/24 09:18:51;;;;;;;6.38;4.88;;;22.10;99.90;;;;;;4836523;29;20055;-80
2023/06/24 09:21:36;;;;;;;7.68;5.47;;;22.20;99.90;;;;;;4841573;29;20058;-81
2023/06/24 09:24:04;;;;;;;11.15;6.00;;;22.20;99.90;;;;;;4855797;29;20061;-84
2023/06/24 09:26:31;;;;;;;7.40;6.18;;;22.30;99.90;;;;;;4856020;29;20588;-82
2023/06/24 09:28:58;;;;;;;7.85;5.32;;;22.30;99.90;;;;;;4854023;29;20050;-82
2023/06/24 09:31:25;;;;;;;8.73;5.72;;;22.40;99.90;;;;;;4855985;29;20053;-82
2023/06/24 09:33:51;;;;;;;10.50;5.68;;;22.50;99.90;;;;;;4857498;29;20061;-82
2023/06/24 09:36:18;;;;;;;7.25;5.25;;;22.40;99.90;;;;;;4840170;29;20078;-81
2023/06/24 09:38:45;;;;;;;8.30;5.60;;;22.50;99.90;;;;;;4857284;29;20054;-80
2023/06/24 09:41:14;;;;;;;6.53;5.65;;;22.50;99.90;;;;;;4855815;29;20089;-83
2023/06/24 09:43:44;;;;;;;9.27;6.43;;;22.60;99.90;;;;;;4854974;29;20086;-82
2023/06/24 09:46:12;;;;;;;5.85;4.78;;;22.70;99.90;;;;;;4853960;29;20071;-83
2023/06/24 09:48:39;;;;;;;8.35;5.57;;;22.70;99.90;;;;;;4854603;29;20129;-82
2023/06/24 09:51:06;;;;;;;7.28;5.20;;;22.70;99.90;;;;;;4839783;29;20058;-83
2023/06/24 09:53:35;;;;;;;6.68;4.47;;;22.70;99.90;;;;;;4853135;29;20046;-81
2023/06/24 09:56:04;;;;;;;9.77;4.95;;;22.80;99.90;;;;;;4854981;29;20066;-80
2023/06/24 09:58:34;;;;;;;6.03;4.60;;;22.90;99.90;;;;;;4851596;29;20050;-82
2023/06/24 10:01:04;;;;;;;6.05;4.50;;;22.90;99.90;;;;;;4854884;29;20050;-83
2023/06/24 10:03:36;;;;;;;6.55;4.07;;;22.90;99.90;;;;;;4853155;29;20079;-81
2023/06/24 10:06:04;;;;;;;6.28;4.18;;;23.00;99.90;;;;;;4838072;29;20114;-82
2023/06/24 10:08:32;;;;;;;6.22;4.55;;;23.10;99.90;;;;;;4855212;29;20088;-82
2023/06/24 10:11:00;;;;;;;8.10;4.72;;;23.20;99.90;;;;;;4855997;29;20114;-82
2023/06/24 10:13:27;;;;;;;7.55;4.10;;;23.30;99.90;;;;;;4856608;29;20042;-79
2023/06/24 10:15:56;;;;;;;6.35;4.68;;;23.40;99.90;;;;;;4856342;29;20086;-82
2023/06/24 10:18:36;;;;;;;6.97;4.07;;;23.40;99.90;;;;;;4839458;29;20050;-83
2023/06/24 10:21:04;;;;;;;;;;;23.50;99.90;;;;;;4838812;29;20057;-81
2023/06/24 10:23:55;;;;;;;4.78;4.28;;;23.50;99.90;;;;;;4853742;29;19909;-80
2023/06/24 10:26:30;;;;;;;4.55;3.35;;;23.50;99.90;;;;;;4854420;29;20084;-79
2023/06/24 10:29:06;;;;;;;4.95;3.65;;;23.60;99.90;;;;;;4852988;29;20061;-83
2023/06/24 10:31:39;;;;;;;4.72;3.72;;;23.70;99.90;;;;;;4854695;29;20041;-82
2023/06/24 10:34:32;;;;;;;6.20;3.60;;;23.70;99.90;;;;;;4854728;29;20054;-84
2023/06/24 10:37:04;;;;;;;5.82;3.22;;;23.80;99.90;;;;;;4855220;29;20089;-82
2023/06/24 10:39:52;;;;;;;4.25;3.75;;;23.90;99.90;;;;;;4855337;29;20093;-82
2023/06/24 10:42:35;;;;;;;8.15;3.55;;;23.90;99.90;;;;;;4839052;29;20062;-80
2023/06/24 10:45:13;;;;;;;5.05;3.45;;;24.00;99.90;;;;;;4839235;29;20082;-82
2023/06/24 10:47:45;;;;;;;4.22;3.05;;;24.10;99.90;;;;;;4856746;29;20046;-83
2023/06/24 10:50:14;;;;;;;3.30;2.83;;;24.10;99.90;;;;;;4854186;29;20046;-83
2023/06/24 10:52:46;;;;;;;4.55;2.95;;;24.20;99.90;;;;;;4855884;29;20109;-82
2023/06/24 10:55:17;;;;;;;4.97;2.92;;;24.30;99.90;;;;;;4853383;29;20046;-80
2023/06/24 10:57:44;;;;;;;6.10;3.03;;;24.30;99.90;;;;;;4854888;29;20109;-80
2023/06/24 11:00:13;;;;;;;4.20;3.10;;;24.40;99.90;;;;;;4853819;29;20046;-82
2023/06/24 11:02:39;;;;;;;3.60;3.10;;;24.40;99.90;;;;;;4852772;29;20050;-83
2023/06/24 11:05:07;;;;;;;4.63;3.50;;;24.50;99.90;;;;;;4854190;29;20050;-79
2023/06/24 11:07:36;;;;;;;4.38;3.42;;;24.50;99.90;;;;;;4851830;29;20056;-82
2023/06/24 11:10:15;;;;;;;4.25;3.40;;;24.60;99.90;;;;;;4854082;29;20050;-84
2023/06/24 11:12:43;;;;;;;5.05;3.13;;;24.70;99.90;;;;;;4852174;29;20048;-83
2023/06/24 11:15:11;;;;;;;4.10;3.25;;;24.80;99.90;;;;;;4853940;29;20050;-84
2023/06/24 11:17:39;;;;;;;4.20;3.42;;;24.80;99.90;;;;;;4853722;29;20056;-83
2023/06/24 11:20:16;;;;;;;5.75;3.08;;;24.80;99.90;;;;;;4854768;29;20118;-79
2023/06/24 11:22:43;;;;;;;7.50;3.30;;;24.90;99.90;;;;;;4854019;29;20110;-82
2023/06/24 11:25:24;;;;;;;5.80;3.08;;;24.90;99.90;;;;;;4859609;29;20079;-79
2023/06/24 11:27:52;;;;;;;;;;;25.00;99.90;;;;;;4831602;29;20071;-83
2023/06/24 11:30:19;;;;;;;3.25;2.85;;;25.10;99.90;;;;;;4840460;29;20038;-81
2023/06/24 11:32:47;;;;;;;3.78;3.38;;;25.00;99.90;;;;;;4858688;29;20121;-83
2023/06/24 11:35:16;;;;;;;4.30;3.20;;;25.00;99.90;;;;;;4839409;29;20064;-82
2023/06/24 11:37:45;;;;;;;4.85;3.22;;;25.10;99.90;;;;;;4859884;29;20045;-81
2023/06/24 11:40:16;;;;;;;4.50;2.92;;;25.10;99.90;;;;;;4856744;29;20050;-83
2023/06/24 11:42:44;;;;;;;4.85;3.50;;;25.20;99.90;;;;;;4860812;29;20137;-83
2023/06/24 11:45:15;;;;;;;4.03;3.50;;;25.20;99.90;;;;;;4843640;29;20114;-83
2023/06/24 11:47:43;;;;;;;3.63;3.25;;;25.20;99.90;;;;;;4843831;29;20085;-84
2023/06/24 11:50:10;;;;;;;3.50;3.20;;;25.30;99.90;;;;;;4842173;29;20050;-82
2023/06/24 11:52:46;;;;;;;4.50;3.33;;;25.30;99.90;;;;;;4856353;29;20042;-83
2023/06/24 11:55:17;;;;;;;4.13;3.30;;;25.30;99.90;;;;;;4857350;29;20106;-83
2023/06/24 11:57:53;;;;;;;5.35;3.33;;;25.30;99.90;;;;;;4858308;29;20497;-83
2023/06/24 12:00:43;;;;;;;6.45;3.25;;;25.40;99.90;;;;;;4856257;29;20087;-83
2023/06/24 12:03:11;;;;;;;;;;;25.40;99.90;;;;;;4841392;29;20078;-80
2023/06/24 12:05:44;;;;;;;3.97;3.28;;;25.40;99.90;;;;;;4858570;29;19931;-82
2023/06/24 12:08:15;;;;;;;4.15;3.03;;;25.50;99.90;;;;;;4857767;29;20050;-82
2023/06/24 12:10:44;;;;;;;4.75;3.63;;;25.50;99.90;;;;;;4856398;29;20071;-82
2023/06/24 12:13:10;;;;;;;5.53;3.35;;;25.50;99.90;;;;;;4856169;29;20065;-84
2023/06/24 12:15:37;;;;;;;3.20;2.90;;;25.50;99.90;;;;;;4858005;29;20073;-84
2023/06/24 12:18:05;;;;;;;5.97;3.22;;;25.60;99.90;;;;;;4858397;29;20046;-80
2023/06/24 12:20:32;;;;;;;9.23;3.40;;;25.60;99.90;;;;;;4858012;29;20102;-83
2023/06/24 12:23:03;;;;;;;3.90;3.17;;;25.70;99.90;;;;;;4838800;29;20572;-80
2023/06/24 12:25:30;;;;;;;3.55;2.80;;;25.70;99.90;;;;;;4857989;29;20071;-84
2023/06/24 12:27:59;;;;;;;3.55;3.03;;;25.70;99.90;;;;;;4857123;29;20050;-83
2023/06/24 12:30:26;;;;;;;3.75;3.15;;;25.70;99.90;;;;;;4858455;29;20106;-84
2023/06/24 12:32:53;;;;;;;5.43;3.20;;;25.80;99.90;;;;;;4858775;29;20052;-81
2023/06/24 12:35:21;;;;;;;3.50;2.80;;;25.80;99.90;;;;;;4841901;29;20058;-83
2023/06/24 12:37:48;;;;;;;4.65;3.35;;;25.80;99.90;;;;;;4857757;29;20046;-82
2023/06/24 12:40:15;;;;;;;4.07;3.22;;;25.90;99.90;;;;;;4858047;29;20118;-83
2023/06/24 12:42:42;;;;;;;4.10;2.83;;;25.90;99.90;;;;;;4858935;29;20050;-80
2023/06/24 12:45:09;;;;;;;7.63;3.15;;;25.90;99.90;;;;;;4841908;29;20053;-84
2023/06/24 12:47:36;;;;;;;5.50;2.90;;;25.90;99.90;;;;;;4842431;29;20046;-80
2023/06/24 12:50:06;;;;;;;4.10;2.88;;;25.90;99.90;;;;;;4842369;29;20081;-82
2023/06/24 12:52:38;;;;;;;3.35;3.03;;;26.00;99.90;;;;;;4854926;29;20164;-79
2023/06/24 12:55:06;;;;;;;3.55;3.25;;;26.10;99.90;;;;;;4857672;29;20054;-84